Time;durP1;ratioP1;P1;durP2;ratioP2;P2;SDS_P1;SDS_P2;PMS_P1;PMS_P2;Temp;Humidity;BMP_temperature;BMP_pressure;BME280_temperature;BME280_humidity;BME280_pressure;Samples;Min_cycle;Max_cycle;Signal;HPM_P1;HPM_P2
2023/07/18 03:46:29;;;;;;;7.07;4.03;;;21.00;99.90;;;;;;4392929;19;4147643;-36
2023/07/18 03:48:02;;;;;;;7.25;4.30;;;21.10;99.90;;;;;;4613081;19;20534;-38
2023/07/18 03:49:35;;;;;;;5.85;4.07;;;21.20;99.90;;;;;;4612854;19;20025;-36
2023/07/18 03:51:09;;;;;;;6.55;4.25;;;21.30;99.90;;;;;;4611926;19;20027;-29
2023/07/18 03:52:41;;;;;;;6.13;4.18;;;21.40;99.90;;;;;;4612435;19;20025;-30
2023/07/18 03:54:14;;;;;;;7.25;4.53;;;21.60;99.90;;;;;;4612208;19;20026;-31
2023/07/18 03:55:45;;;;;;;5.15;3.90;;;21.60;99.90;;;;;;4612816;19;20062;-38
2023/07/18 03:57:16;;;;;;;4.50;3.42;;;21.70;99.90;;;;;;4611172;19;20504;-29
2023/07/18 03:58:49;;;;;;;4.97;3.35;;;21.80;99.90;;;;;;4612138;19;20018;-38
2023/07/18 04:00:22;;;;;;;5.10;3.50;;;22.00;99.90;;;;;;4612857;19;20458;-39
2023/07/18 04:01:54;;;;;;;4.70;2.72;;;22.10;99.90;;;;;;4612707;19;20050;-39
2023/07/18 04:03:25;;;;;;;4.40;2.70;;;22.30;99.90;;;;;;4612317;19;20027;-35
2023/07/18 04:04:57;;;;;;;5.00;3.25;;;22.30;99.90;;;;;;4610680;19;20035;-30
2023/07/18 04:06:29;;;;;;;3.67;2.58;;;22.30;99.90;;;;;;4612528;19;20014;-30
2023/07/18 04:08:01;;;;;;;4.00;2.70;;;22.30;99.90;;;;;;4613226;19;20430;-30
2023/07/18 04:09:32;;;;;;;5.25;2.92;;;22.30;99.90;;;;;;4612149;19;20066;-34
2023/07/18 04:11:05;;;;;;;3.45;2.55;;;22.40;99.90;;;;;;4611951;19;20010;-32
2023/07/18 04:12:36;;;;;;;4.65;2.40;;;22.40;99.90;;;;;;4611995;19;20022;-30
2023/07/18 04:14:10;;;;;;;5.85;3.10;;;22.40;99.90;;;;;;4609121;19;20032;-30
2023/07/18 04:15:41;;;;;;;3.67;2.78;;;22.40;99.90;;;;;;4611370;19;20332;-30
2023/07/18 04:17:13;;;;;;;3.63;2.28;;;22.50;99.90;;;;;;4612315;19;20018;-39
2023/07/18 04:18:47;;;;;;;4.88;3.10;;;22.50;99.90;;;;;;4612337;19;20014;-30
2023/07/18 04:20:19;;;;;;;;;;;22.60;99.90;;;;;;4613751;19;20362;-33
2023/07/18 04:21:50;;;;;;;;;;;22.60;99.90;;;;;;4612859;19;19914;-34
2023/07/18 04:23:24;;;;;;;4.10;2.22;;;22.50;99.90;;;;;;4611843;19;19914;-34
2023/07/18 04:24:57;;;;;;;3.83;2.05;;;22.40;99.90;;;;;;4611208;19;20002;-30
2023/07/18 04:26:28;;;;;;;5.57;2.47;;;22.30;99.90;;;;;;4611192;19;20470;-29
2023/07/18 04:28:03;;;;;;;3.75;2.90;;;22.20;99.90;;;;;;4611351;19;20006;-37
2023/07/18 04:29:35;;;;;;;5.13;3.22;;;22.10;99.90;;;;;;4611679;19;20079;-30
2023/07/18 04:31:07;;;;;;;7.25;4.20;;;21.90;99.90;;;;;;4608676;19;20026;-34
2023/07/18 04:32:41;;;;;;;6.03;3.67;;;21.90;99.90;;;;;;4611885;19;20018;-39
2023/07/18 04:34:15;;;;;;;6.32;3.55;;;21.90;99.90;;;;;;4610947;19;20014;-32
2023/07/18 04:35:46;;;;;;;5.43;3.72;;;21.90;99.90;;;;;;4611867;19;20021;-33
2023/07/18 04:37:17;;;;;;;5.72;3.47;;;21.80;99.90;;;;;;4611827;19;20027;-34
2023/07/18 04:38:49;;;;;;;4.95;2.83;;;21.80;99.90;;;;;;4611110;19;20485;-34
2023/07/18 04:40:22;;;;;;;4.90;2.80;;;21.80;99.90;;;;;;4611484;19;20340;-35
2023/07/18 04:41:53;;;;;;;3.63;2.40;;;21.80;99.90;;;;;;4612645;19;20031;-38
2023/07/18 04:43:25;;;;;;;4.22;2.60;;;21.90;99.90;;;;;;4611870;19;20091;-29
2023/07/18 04:44:57;;;;;;;4.40;3.30;;;21.90;99.90;;;;;;4610801;19;20040;-40
2023/07/18 04:46:28;;;;;;;4.45;2.80;;;22.00;99.90;;;;;;4610537;19;20017;-28
2023/07/18 04:47:59;;;;;;;;;;;22.00;99.90;;;;;;4610960;19;20039;-35
2023/07/18 04:49:31;;;;;;;4.13;2.38;;;22.10;99.90;;;;;;4612363;19;19917;-28
2023/07/18 04:51:04;;;;;;;4.85;3.28;;;22.10;99.90;;;;;;4611679;19;20022;-31
2023/07/18 04:52:35;;;;;;;;;;;22.10;99.90;;;;;;4612573;19;20074;-28
2023/07/18 04:54:06;;;;;;;3.80;2.20;;;22.10;99.90;;;;;;4611107;19;19937;-30
2023/07/18 04:55:39;;;;;;;4.35;2.50;;;22.20;99.90;;;;;;4609692;19;20344;-36
2023/07/18 04:57:10;;;;;;;4.13;2.50;;;22.20;99.90;;;;;;4590534;19;20018;-30
2023/07/18 04:58:42;;;;;;;5.05;3.17;;;22.20;99.90;;;;;;4593550;19;20007;-40
2023/07/18 05:00:14;;;;;;;5.53;3.40;;;21.80;99.90;;;;;;4594109;19;20579;-30
2023/07/18 05:01:46;;;;;;;5.47;3.42;;;21.30;99.90;;;;;;4591118;19;20474;-31
2023/07/18 05:03:17;;;;;;;4.50;2.58;;;20.90;99.90;;;;;;4593712;19;20025;-31
2023/07/18 05:04:49;;;;;;;5.45;3.10;;;20.60;99.90;;;;;;4590268;19;20026;-33
2023/07/18 05:06:20;;;;;;;5.55;2.80;;;20.40;99.90;;;;;;4593926;19;20018;-38
2023/07/18 05:07:54;;;;;;;6.18;3.40;;;20.30;99.90;;;;;;4593491;19;20474;-30
2023/07/18 05:09:27;;;;;;;5.35;3.35;;;20.20;99.90;;;;;;4591713;19;20033;-29
2023/07/18 05:11:01;;;;;;;6.80;3.63;;;20.10;99.90;;;;;;4593331;19;20459;-30
2023/07/18 05:12:32;;;;;;;4.55;2.80;;;20.00;99.90;;;;;;4591684;19;20118;-33
2023/07/18 05:14:05;;;;;;;5.28;2.70;;;20.00;99.90;;;;;;4592829;19;20036;-29
2023/07/18 05:15:36;;;;;;;6.97;3.30;;;20.00;99.90;;;;;;4592581;19;20088;-34
2023/07/18 05:17:07;;;;;;;5.43;3.30;;;20.00;99.90;;;;;;4594129;19;20027;-30
2023/07/18 05:18:38;;;;;;;5.88;2.67;;;19.90;99.90;;;;;;4593506;19;20018;-31
2023/07/18 05:20:10;;;;;;;7.55;2.63;;;19.90;99.90;;;;;;4591941;19;20014;-29
2023/07/18 05:21:42;;;;;;;4.15;2.65;;;19.80;99.90;;;;;;4593730;19;20023;-30
2023/07/18 05:23:14;;;;;;;5.07;2.40;;;19.80;99.90;;;;;;4595052;19;20474;-29
2023/07/18 05:24:46;;;;;;;;;;;19.80;99.90;;;;;;4593413;19;20015;-29
2023/07/18 05:26:17;;;;;;;5.22;2.80;;;19.60;99.90;;;;;;4591933;19;20293;-34
2023/07/18 05:27:48;;;;;;;5.28;2.65;;;19.40;99.90;;;;;;4592529;19;20032;-34
2023/07/18 05:29:19;;;;;;;6.57;2.80;;;19.30;99.90;;;;;;4593414;19;20328;-37
2023/07/18 05:30:51;;;;;;;;;;;19.10;99.90;;;;;;4593664;19;20010;-30
2023/07/18 05:32:23;;;;;;;3.75;2.28;;;19.50;99.90;;;;;;4592899;19;19911;-31
2023/07/18 05:33:56;;;;;;;4.35;2.60;;;19.80;99.90;;;;;;4593286;19;20002;-36
2023/07/18 05:35:27;;;;;;;4.18;2.70;;;19.50;99.90;;;;;;4593439;19;20332;-31
2023/07/18 05:37:00;;;;;;;7.50;3.75;;;19.30;99.90;;;;;;4592597;19;20079;-37
2023/07/18 05:38:33;;;;;;;4.85;3.45;;;19.20;99.90;;;;;;4593034;19;20022;-30
2023/07/18 05:40:05;;;;;;;5.88;3.50;;;19.00;99.90;;;;;;4592851;19;20011;-39
2023/07/18 05:41:40;;;;;;;5.55;2.63;;;19.00;99.90;;;;;;4593069;19;20022;-30
2023/07/18 05:43:13;;;;;;;5.18;2.83;;;19.00;99.90;;;;;;4591580;19;20023;-30
2023/07/18 05:44:45;;;;;;;3.90;2.50;;;18.90;99.90;;;;;;4591151;19;20014;-30
2023/07/18 05:46:17;;;;;;;5.28;2.85;;;18.90;99.90;;;;;;4592501;19;20010;-30
2023/07/18 05:47:50;;;;;;;5.43;3.15;;;18.90;99.90;;;;;;4593094;19;20349;-37
2023/07/18 05:49:21;;;;;;;6.60;3.33;;;18.90;99.90;;;;;;4592615;19;20018;-31
2023/07/18 05:50:53;;;;;;;5.88;2.95;;;18.90;99.90;;;;;;4593047;19;20014;-31
2023/07/18 05:52:25;;;;;;;5.63;2.35;;;18.80;99.90;;;;;;4593188;19;20003;-31
2023/07/18 05:53:57;;;;;;;6.68;2.67;;;18.90;99.90;;;;;;4592620;19;20365;-37
2023/07/18 05:55:28;;;;;;;5.28;2.85;;;18.80;99.90;;;;;;4592559;19;20014;-31
2023/07/18 05:57:00;;;;;;;4.35;2.65;;;18.90;99.90;;;;;;4592200;19;20011;-35
2023/07/18 05:58:31;;;;;;;6.03;2.88;;;18.90;99.90;;;;;;4593000;19;20007;-37
2023/07/18 06:00:05;;;;;;;4.53;2.55;;;19.00;99.90;;;;;;4589475;19;20032;-42
2023/07/18 06:01:37;;;;;;;5.00;2.60;;;19.10;99.90;;;;;;4591533;19;20018;-32
2023/07/18 06:03:08;;;;;;;5.00;2.80;;;19.20;99.90;;;;;;4589465;19;20042;-38
2023/07/18 06:04:40;;;;;;;4.15;2.80;;;19.30;99.90;;;;;;4590939;19;20097;-30
2023/07/18 06:06:13;;;;;;;4.55;2.08;;;19.30;99.90;;;;;;4592067;19;20010;-30
2023/07/18 06:07:46;;;;;;;7.97;2.45;;;19.50;99.90;;;;;;4589416;19;20015;-30
2023/07/18 06:09:17;;;;;;;3.00;2.03;;;19.90;99.90;;;;;;4591737;19;20037;-39
2023/07/18 06:10:48;;;;;;;;;;;20.30;99.90;;;;;;4593782;19;20019;-36
2023/07/18 06:12:19;;;;;;;2.88;1.48;;;20.50;99.90;;;;;;4591992;19;19921;-30
2023/07/18 06:13:52;;;;;;;3.88;1.85;;;20.60;99.90;;;;;;4592371;19;20007;-36
2023/07/18 06:15:25;;;;;;;4.20;2.30;;;20.80;99.90;;;;;;4592489;19;20006;-34
2023/07/18 06:16:58;;;;;;;3.97;2.00;;;20.70;99.90;;;;;;4591980;19;20006;-30
2023/07/18 06:18:30;;;;;;;3.88;2.38;;;20.40;99.90;;;;;;4590232;19;20011;-30
2023/07/18 06:20:08;;;;;;;5.43;2.30;;;20.20;99.90;;;;;;4591741;19;20356;-34
2023/07/18 06:21:40;;;;;;;7.35;2.53;;;20.00;99.90;;;;;;4591431;19;20467;-34
2023/07/18 06:23:13;;;;;;;5.05;2.53;;;19.90;99.90;;;;;;4592257;19;20010;-35
2023/07/18 06:24:45;;;;;;;6.07;2.95;;;19.80;99.90;;;;;;4591154;19;20335;-32
2023/07/18 06:26:17;;;;;;;5.30;2.42;;;19.80;99.90;;;;;;4591762;19;20014;-29
2023/07/18 06:27:48;;;;;;;4.07;2.20;;;19.70;99.90;;;;;;4592178;19;20011;-37
2023/07/18 06:29:19;;;;;;;5.32;2.55;;;19.70;99.90;;;;;;4591959;19;20007;-31
2023/07/18 06:30:55;;;;;;;6.25;3.25;;;19.70;99.90;;;;;;4590516;19;20007;-32
2023/07/18 06:32:28;;;;;;;5.05;2.58;;;19.70;99.90;;;;;;4591419;19;20011;-39
2023/07/18 06:34:01;;;;;;;3.92;2.25;;;19.70;99.90;;;;;;4590518;19;20495;-33
2023/07/18 06:35:32;;;;;;;7.28;2.70;;;19.70;99.90;;;;;;4591235;19;20108;-30
2023/07/18 06:37:06;;;;;;;3.85;1.90;;;19.70;99.90;;;;;;4590426;19;20010;-37
2023/07/18 06:38:38;;;;;;;4.43;2.30;;;19.60;99.90;;;;;;4591050;19;20082;-35
2023/07/18 06:40:11;;;;;;;4.78;2.45;;;19.60;99.90;;;;;;4592054;19;20070;-30
2023/07/18 06:41:43;;;;;;;3.58;1.95;;;19.60;99.90;;;;;;4591718;19;20010;-30
2023/07/18 06:43:16;;;;;;;2.75;1.80;;;19.70;99.90;;;;;;4591609;19;20026;-31
2023/07/18 06:44:47;;;;;;;;;;;20.10;99.90;;;;;;4591502;19;20050;-34
2023/07/18 06:46:18;;;;;;;4.25;1.83;;;20.40;99.90;;;;;;4591559;19;19911;-30
2023/07/18 06:47:51;;;;;;;3.13;1.70;;;20.70;99.90;;;;;;4591228;19;20014;-41
2023/07/18 06:49:22;;;;;;;4.07;2.03;;;20.90;99.90;;;;;;4590181;19;20017;-30
2023/07/18 06:50:56;;;;;;;5.90;3.10;;;21.00;99.90;;;;;;4591054;19;20036;-29
2023/07/18 06:52:28;;;;;;;5.43;2.92;;;19.80;99.90;;;;;;4591434;19;20018;-37
2023/07/18 06:53:59;;;;;;;4.35;2.78;;;18.70;99.90;;;;;;4590702;19;20014;-30
2023/07/18 06:55:30;;;;;;;5.00;2.35;;;18.30;99.90;;;;;;4591417;19;20017;-31
2023/07/18 06:57:02;;;;;;;5.32;2.55;;;18.30;99.90;;;;;;4590160;19;20014;-31
2023/07/18 06:58:34;;;;;;;3.92;2.25;;;18.30;99.90;;;;;;4590010;19;20069;-32
2023/07/18 07:00:06;;;;;;;4.28;2.45;;;18.30;99.90;;;;;;4590538;19;20021;-32
2023/07/18 07:01:37;;;;;;;3.15;2.03;;;18.30;99.90;;;;;;4591494;19;20036;-33
2023/07/18 07:03:08;;;;;;;3.30;1.65;;;18.30;99.90;;;;;;4591763;19;20003;-28
2023/07/18 07:04:39;;;;;;;4.38;2.05;;;18.30;99.90;;;;;;4590294;19;20019;-35
2023/07/18 07:06:12;;;;;;;4.20;1.90;;;18.20;99.90;;;;;;4591254;19;20017;-31
2023/07/18 07:07:43;;;;;;;3.13;2.13;;;18.30;99.90;;;;;;4591535;19;20042;-30
2023/07/18 07:09:15;;;;;;;4.82;2.30;;;18.30;99.90;;;;;;4591151;19;20093;-33
2023/07/18 07:10:46;;;;;;;6.28;2.92;;;18.20;99.90;;;;;;4590778;19;20021;-33
2023/07/18 07:12:22;;;;;;;4.60;2.67;;;18.30;99.90;;;;;;4590287;19;20090;-37
2023/07/18 07:13:58;;;;;;;4.38;2.47;;;18.30;99.90;;;;;;4590261;19;19998;-36
2023/07/18 07:15:33;;;;;;;4.38;2.22;;;18.40;99.90;;;;;;4589791;19;20343;-35
2023/07/18 07:17:09;;;;;;;4.35;2.40;;;18.40;99.90;;;;;;4588987;19;20097;-29
2023/07/18 07:24:32;;;;;;;6.93;2.50;;;18.40;99.90;;;;;;4591930;19;19979;-31
2023/07/18 07:26:06;;;;;;;3.03;1.90;;;18.50;99.90;;;;;;4588735;19;20022;-35
2023/07/18 07:27:37;;;;;;;4.05;1.67;;;18.50;99.90;;;;;;4590017;19;20020;-33
2023/07/18 07:29:09;;;;;;;3.33;1.63;;;18.50;99.90;;;;;;4589300;19;20521;-31
2023/07/18 07:30:42;;;;;;;3.67;1.80;;;18.50;99.90;;;;;;4589381;19;20026;-36
2023/07/18 07:32:14;;;;;;;4.50;2.45;;;18.50;99.90;;;;;;4589934;19;20010;-39
2023/07/18 07:33:45;;;;;;;4.15;2.15;;;18.50;99.90;;;;;;4589001;19;20010;-31
2023/07/18 07:35:22;;;;;;;3.70;1.75;;;18.60;99.90;;;;;;4590381;19;20019;-39
2023/07/18 07:36:53;;;;;;;3.58;1.65;;;18.60;99.90;;;;;;4590125;19;20010;-36
2023/07/18 07:38:27;;;;;;;3.17;1.67;;;18.60;99.90;;;;;;4590793;19;20477;-36
2023/07/18 07:40:00;;;;;;;3.58;1.77;;;18.60;99.90;;;;;;4588871;19;20015;-29
2023/07/18 07:41:32;;;;;;;5.22;2.85;;;18.70;99.90;;;;;;4590045;19;20011;-31
2023/07/18 07:43:04;;;;;;;4.00;2.30;;;18.70;99.90;;;;;;4589849;19;19999;-37
2023/07/18 07:49:36;;;;;;;3.38;1.67;;;18.80;99.90;;;;;;4588985;19;20093;-30
2023/07/18 07:51:08;;;;;;;;;;;18.90;99.90;;;;;;4589940;19;20051;-30
2023/07/18 07:52:39;;;;;;;2.67;1.83;;;18.80;99.90;;;;;;4590072;19;19915;-30
2023/07/18 07:54:22;;;;;;;3.20;1.50;;;18.80;99.90;;;;;;4588158;19;20015;-35
2023/07/18 07:55:54;;;;;;;3.97;2.33;;;18.90;99.90;;;;;;4588606;19;20007;-38
2023/07/18 07:57:25;;;;;;;2.72;1.50;;;18.90;99.90;;;;;;4588984;19;20014;-38
2023/07/18 07:58:56;;;;;;;2.22;1.50;;;18.90;99.90;;;;;;4590241;19;20387;-43
2023/07/18 08:00:27;;;;;;;3.70;1.75;;;19.00;99.90;;;;;;4589781;19;20033;-36
2023/07/18 08:02:00;;;;;;;2.88;1.55;;;19.10;99.90;;;;;;4590347;19;20471;-39
2023/07/18 08:03:32;;;;;;;3.08;1.30;;;19.20;99.90;;;;;;4589337;19;20014;-30
2023/07/18 08:05:04;;;;;;;4.03;1.65;;;19.30;99.90;;;;;;4587711;19;20042;-31
2023/07/18 08:06:37;;;;;;;4.40;1.60;;;19.40;99.90;;;;;;4589138;19;20032;-38
2023/07/18 08:08:10;;;;;;;;;;;19.40;99.90;;;;;;4589181;19;20021;-30
2023/07/18 08:09:41;;;;;;;3.85;1.30;;;19.40;99.90;;;;;;4589774;19;19919;-39
2023/07/18 08:11:12;;;;;;;2.40;1.35;;;19.50;99.90;;;;;;4588940;19;20023;-30
2023/07/18 08:12:43;;;;;;;3.22;1.40;;;19.50;99.90;;;;;;4589312;19;20473;-30
2023/07/18 08:14:17;;;;;;;3.47;1.55;;;19.60;99.90;;;;;;4589881;19;20022;-31
2023/07/18 08:15:50;;;;;;;3.17;1.40;;;19.60;99.90;;;;;;4588873;19;20481;-31
2023/07/18 08:17:22;;;;;;;2.65;1.20;;;19.70;99.90;;;;;;4589303;19;20485;-31
2023/07/18 08:18:54;;;;;;;5.30;1.52;;;19.90;99.90;;;;;;4588357;19;20098;-31
2023/07/18 08:25:49;;;;;;;2.55;1.10;;;20.10;99.90;;;;;;4591680;19;19982;-31
2023/07/18 08:32:26;;;;;;;5.63;1.38;;;20.20;99.90;;;;;;4593267;19;19990;-30
2023/07/18 08:33:59;;;;;;;2.25;0.93;;;20.20;99.90;;;;;;4592254;19;20013;-30
2023/07/18 08:35:30;;;;;;;2.58;1.17;;;20.20;99.90;;;;;;4593656;19;20070;-40
2023/07/18 08:37:02;;;;;;;2.45;1.38;;;20.10;99.90;;;;;;4592681;19;20501;-30
2023/07/18 08:38:34;;;;;;;;;;;19.60;99.90;;;;;;4593000;19;20435;-37
2023/07/18 08:40:09;;;;;;;2.10;1.20;;;19.30;99.90;;;;;;4592552;19;19929;-37
2023/07/18 08:41:44;;;;;;;2.60;1.30;;;19.20;99.90;;;;;;4593096;19;20019;-30
2023/07/18 08:43:18;;;;;;;3.55;1.45;;;19.20;99.90;;;;;;4593421;19;20015;-30
2023/07/18 08:44:49;;;;;;;2.67;1.20;;;19.30;99.90;;;;;;4591411;19;20014;-30
2023/07/18 08:46:20;;;;;;;1.90;0.93;;;19.40;99.90;;;;;;4593486;19;20014;-36
2023/07/18 08:47:56;;;;;;;1.90;1.10;;;19.40;99.90;;;;;;4592750;19;20010;-33
2023/07/18 08:49:30;;;;;;;2.75;1.30;;;19.50;99.90;;;;;;4591910;19;20014;-29
2023/07/18 08:51:01;;;;;;;2.55;1.10;;;19.50;99.90;;;;;;4591920;19;20023;-32
2023/07/18 08:52:33;;;;;;;2.65;1.27;;;19.50;99.90;;;;;;4593136;19;20042;-31
2023/07/18 08:54:23;;;;;;;1.80;1.08;;;19.50;99.90;;;;;;4592124;19;20014;-38
2023/07/18 08:58:37;;;;;;;1.83;0.95;;;19.50;99.90;;;;;;4592120;19;19983;-37
2023/07/18 09:00:11;;;;;;;;;;;19.60;99.90;;;;;;4593558;19;20009;-32
2023/07/18 09:01:49;;;;;;;2.15;0.85;;;19.50;99.90;;;;;;4593804;19;20315;-31
2023/07/18 09:03:21;;;;;;;1.75;0.95;;;19.60;99.90;;;;;;4593097;19;20006;-37
2023/07/18 09:04:52;;;;;;;2.38;1.00;;;19.70;99.90;;;;;;4592715;19;20348;-32
2023/07/18 09:06:24;;;;;;;2.45;1.13;;;19.60;99.90;;;;;;4592658;19;20017;-30
2023/07/18 09:07:57;;;;;;;1.63;0.98;;;19.70;99.90;;;;;;4592613;19;20447;-38
2023/07/18 09:09:29;;;;;;;2.22;0.93;;;19.70;99.90;;;;;;4591456;19;20007;-35
2023/07/18 09:11:03;;;;;;;3.03;1.02;;;19.70;99.90;;;;;;4592486;19;20006;-29
2023/07/18 09:12:37;;;;;;;2.60;1.00;;;19.70;99.90;;;;;;4592403;19;20018;-42
2023/07/18 09:14:09;;;;;;;3.25;1.10;;;19.80;99.90;;;;;;4593460;19;20018;-30
2023/07/18 09:15:40;;;;;;;1.73;1.10;;;19.90;99.90;;;;;;4591711;19;20474;-30
2023/07/18 09:17:11;;;;;;;2.63;1.08;;;19.90;99.90;;;;;;4592908;19;20007;-30
2023/07/18 09:18:47;;;;;;;2.95;1.08;;;19.80;99.90;;;;;;4571290;19;20010;-30
2023/07/18 09:20:18;;;;;;;2.92;1.60;;;19.80;99.90;;;;;;4591665;19;20015;-31
2023/07/18 09:21:52;;;;;;;4.28;1.50;;;19.90;99.90;;;;;;4592781;19;20037;-35
2023/07/18 09:23:24;;;;;;;3.00;1.52;;;19.90;99.90;;;;;;4591843;19;20375;-34
2023/07/18 09:24:55;;;;;;;1.48;0.93;;;19.90;99.90;;;;;;4591894;19;20010;-30
2023/07/18 09:26:27;;;;;;;1.65;0.90;;;19.90;99.90;;;;;;4593162;19;20029;-42
2023/07/18 09:33:13;;;;;;;2.38;1.38;;;20.00;99.90;;;;;;4591668;19;20007;-30
2023/07/18 09:34:55;;;;;;;2.50;0.98;;;20.10;99.90;;;;;;4592368;19;20014;-29
2023/07/18 09:36:27;;;;;;;4.57;1.08;;;20.10;99.90;;;;;;4591661;19;20066;-31
2023/07/18 09:37:58;;;;;;;1.60;0.90;;;20.20;99.90;;;;;;4592492;19;20011;-30
2023/07/18 09:39:30;;;;;;;;;;;20.20;99.90;;;;;;4592832;19;20550;-36
2023/07/18 09:41:04;;;;;;;2.60;1.23;;;20.30;99.90;;;;;;4592736;19;19927;-38
2023/07/18 09:42:37;;;;;;;1.92;0.90;;;20.30;99.90;;;;;;4591015;19;20074;-29
2023/07/18 09:44:09;;;;;;;1.90;0.85;;;20.20;99.90;;;;;;4591221;19;20394;-31
2023/07/18 09:45:41;;;;;;;;;;;20.20;99.90;;;;;;4590761;19;20010;-34
2023/07/18 09:47:13;;;;;;;4.32;1.23;;;20.30;99.90;;;;;;4591155;19;20267;-37
2023/07/18 09:48:46;;;;;;;1.83;1.00;;;20.30;99.90;;;;;;4591824;19;20022;-33
2023/07/18 09:50:17;;;;;;;2.05;1.05;;;20.30;99.90;;;;;;4592525;19;20029;-30
2023/07/18 09:52:04;;;;;;;3.17;1.27;;;20.30;99.90;;;;;;4592263;19;20040;-34
2023/07/18 09:53:40;;;;;;;1.38;0.90;;;20.30;99.90;;;;;;4591577;19;20018;-39
2023/07/18 09:55:14;;;;;;;2.70;0.80;;;20.30;99.90;;;;;;4591020;19;20014;-33
2023/07/18 09:56:45;;;;;;;2.38;1.10;;;20.30;99.90;;;;;;4591283;19;20006;-34
2023/07/18 09:58:18;;;;;;;2.65;0.88;;;20.30;99.90;;;;;;4590743;19;20032;-30
2023/07/18 09:59:52;;;;;;;1.92;0.93;;;20.40;99.90;;;;;;4590967;19;20031;-36
2023/07/18 10:01:26;;;;;;;1.55;0.85;;;20.40;99.90;;;;;;4590867;19;20015;-29
2023/07/18 10:02:58;;;;;;;1.27;0.75;;;20.40;99.90;;;;;;4591083;19;20022;-35
2023/07/18 10:04:44;;;;;;;1.85;0.70;;;20.50;99.90;;;;;;4591493;19;20019;-38
2023/07/18 10:06:17;;;;;;;3.50;0.98;;;20.50;99.90;;;;;;4592427;19;20007;-31
2023/07/18 10:07:49;;;;;;;;;;;20.50;99.90;;;;;;4591433;19;20074;-30
2023/07/18 10:09:23;;;;;;;0.98;0.60;;;20.50;99.90;;;;;;4591875;19;20316;-30
2023/07/18 10:11:07;;;;;;;2.65;1.15;;;20.60;99.90;;;;;;4590643;19;20027;-30
2023/07/18 10:13:02;;;;;;;1.83;1.00;;;20.60;99.90;;;;;;4592120;19;20023;-30
2023/07/18 10:14:42;;;;;;;1.88;1.02;;;20.60;99.90;;;;;;4589321;19;20015;-31
2023/07/18 10:16:13;;;;;;;2.72;1.40;;;20.60;99.90;;;;;;4591320;19;20349;-30
2023/07/18 10:17:45;;;;;;;1.42;0.95;;;20.60;99.90;;;;;;4591587;19;20035;-38
2023/07/18 10:19:18;;;;;;;1.63;0.95;;;20.60;99.90;;;;;;4592325;19;20325;-31
2023/07/18 10:21:00;;;;;;;1.45;0.98;;;20.70;99.90;;;;;;4590468;19;20022;-29
2023/07/18 10:22:32;;;;;;;1.98;0.90;;;20.70;99.90;;;;;;4592675;19;20498;-30
2023/07/18 10:24:20;;;;;;;2.03;1.00;;;20.70;99.90;;;;;;4591834;19;20010;-30
2023/07/18 10:25:53;;;;;;;1.98;0.80;;;20.70;99.90;;;;;;4590210;19;20031;-34
2023/07/18 10:27:33;;;;;;;2.08;0.90;;;20.70;99.90;;;;;;4589160;19;20391;-32
2023/07/18 10:29:05;;;;;;;1.60;1.00;;;20.80;99.90;;;;;;4590004;19;20074;-32
2023/07/18 10:30:38;;;;;;;2.63;0.90;;;20.80;99.90;;;;;;4569193;19;20010;-31
2023/07/18 10:32:12;;;;;;;2.58;1.27;;;20.90;99.90;;;;;;4590170;19;20019;-38
2023/07/18 10:34:10;;;;;;;2.15;0.88;;;20.90;99.90;;;;;;4590850;19;20359;-30
2023/07/18 10:35:41;;;;;;;1.33;0.80;;;20.90;99.90;;;;;;4591259;19;20022;-37
2023/07/18 10:37:14;;;;;;;1.88;0.85;;;20.90;99.90;;;;;;4591204;19;20328;-30
2023/07/18 10:38:50;;;;;;;3.20;0.90;;;21.10;99.90;;;;;;4590275;19;20014;-31
2023/07/18 10:40:39;;;;;;;1.38;0.70;;;21.10;99.90;;;;;;4589035;19;20380;-31
2023/07/18 10:42:21;;;;;;;3.42;1.10;;;21.20;99.90;;;;;;4589311;19;20471;-31
2023/07/18 10:43:52;;;;;;;1.20;0.75;;;21.30;99.90;;;;;;4589587;19;20014;-30
2023/07/18 10:45:24;;;;;;;1.38;0.60;;;21.20;99.90;;;;;;4587882;19;20015;-38
2023/07/18 10:46:55;;;;;;;2.03;0.80;;;21.30;99.90;;;;;;4589364;19;20014;-28
2023/07/18 10:48:27;;;;;;;;;;;21.40;99.90;;;;;;4589970;19;20022;-31
2023/07/18 10:51:52;;;;;;;2.25;1.10;;;21.60;99.90;;;;;;4588751;19;20006;-33
2023/07/18 10:53:24;;;;;;;1.50;1.00;;;21.00;99.90;;;;;;4587394;19;20010;-31
2023/07/18 10:54:57;;;;;;;2.13;1.25;;;20.70;99.90;;;;;;4587081;19;20054;-38
2023/07/18 10:56:29;;;;;;;1.27;0.88;;;20.70;99.90;;;;;;4588838;19;20007;-30
2023/07/18 10:58:02;;;;;;;1.50;0.88;;;20.70;99.90;;;;;;4588318;19;20480;-31
2023/07/18 10:59:36;;;;;;;2.00;0.80;;;20.80;99.90;;;;;;4588027;19;20517;-30
2023/07/18 11:01:08;;;;;;;2.35;1.13;;;21.10;99.90;;;;;;4587377;19;20377;-30
2023/07/18 11:02:54;;;;;;;2.72;0.90;;;21.40;99.90;;;;;;4588703;19;20487;-36
2023/07/18 11:04:25;;;;;;;1.10;0.73;;;21.40;99.90;;;;;;4588351;19;20054;-43
2023/07/18 11:05:57;;;;;;;1.05;0.70;;;21.50;99.90;;;;;;4588341;19;20043;-29
2023/07/18 11:07:35;;;;;;;1.65;1.00;;;21.50;99.90;;;;;;4588183;19;20007;-30
2023/07/18 11:09:13;;;;;;;1.40;0.90;;;21.50;99.90;;;;;;4589282;19;20026;-30
2023/07/18 11:10:52;;;;;;;0.80;0.65;;;21.60;99.90;;;;;;4588611;19;20033;-36
2023/07/18 11:12:25;;;;;;;2.25;1.10;;;21.50;99.90;;;;;;4590194;19;20018;-32
2023/07/18 11:13:57;;;;;;;2.78;1.08;;;21.40;99.90;;;;;;4590605;19;20070;-32
2023/07/18 11:15:29;;;;;;;1.98;0.88;;;21.50;99.90;;;;;;4589321;19;20040;-38
2023/07/18 11:17:04;;;;;;;2.00;0.80;;;21.50;99.90;;;;;;4590582;19;20034;-42
2023/07/18 11:18:36;;;;;;;1.85;0.90;;;21.60;99.90;;;;;;4589165;19;20010;-38
2023/07/18 11:20:10;;;;;;;1.48;0.85;;;21.70;99.90;;;;;;4589180;19;20010;-31
2023/07/18 11:21:41;;;;;;;3.25;0.85;;;21.70;99.90;;;;;;4590485;19;20033;-29
2023/07/18 11:23:13;;;;;;;3.08;0.80;;;21.70;99.90;;;;;;4593073;19;20392;-31
2023/07/18 11:24:45;;;;;;;2.67;1.05;;;21.70;99.90;;;;;;4589817;19;20014;-30
2023/07/18 11:26:17;;;;;;;2.90;1.00;;;21.80;99.90;;;;;;4588106;19;20006;-38
2023/07/18 11:27:49;;;;;;;1.35;0.77;;;21.70;99.90;;;;;;4588813;19;20118;-34
2023/07/18 11:29:25;;;;;;;2.30;1.00;;;21.70;99.90;;;;;;4589825;19;20014;-30
2023/07/18 11:30:56;;;;;;;2.25;1.10;;;21.70;99.90;;;;;;4588224;19;20010;-33
2023/07/18 11:32:40;;;;;;;;;;;21.60;99.90;;;;;;4589379;19;20022;-31
2023/07/18 11:34:12;;;;;;;1.98;1.00;;;21.60;99.90;;;;;;4589109;19;19914;-30
2023/07/18 11:35:46;;;;;;;2.28;1.13;;;21.60;99.90;;;;;;4589061;19;20007;-30
2023/07/18 11:37:17;;;;;;;2.70;1.13;;;21.50;99.90;;;;;;4588839;19;20479;-32
2023/07/18 11:38:50;;;;;;;2.30;1.25;;;21.50;99.90;;;;;;4587240;19;20337;-29
2023/07/18 11:40:25;;;;;;;5.07;1.20;;;21.60;99.90;;;;;;4586927;19;19999;-31
2023/07/18 11:42:05;;;;;;;2.03;1.08;;;21.60;99.90;;;;;;4588298;19;20010;-30
2023/07/18 11:43:37;;;;;;;2.25;1.10;;;21.60;99.90;;;;;;4586639;19;20015;-34
2023/07/18 11:45:09;;;;;;;2.33;0.93;;;21.70;99.90;;;;;;4587151;19;20011;-31
2023/07/18 11:46:47;;;;;;;3.88;0.77;;;21.70;99.90;;;;;;4587969;19;20495;-30
2023/07/18 11:48:19;;;;;;;1.58;0.88;;;21.80;99.90;;;;;;4587903;19;20094;-44
2023/07/18 11:49:50;;;;;;;1.27;0.82;;;21.70;99.90;;;;;;4585953;19;20021;-37
2023/07/18 11:51:21;;;;;;;2.30;1.10;;;21.70;99.90;;;;;;4587367;19;20017;-29
2023/07/18 11:52:53;;;;;;;1.75;0.98;;;21.50;99.90;;;;;;4587626;19;20007;-33
2023/07/18 11:54:26;;;;;;;2.05;1.08;;;21.50;99.90;;;;;;4587523;19;20010;-31
2023/07/18 11:55:57;;;;;;;1.60;1.10;;;21.50;99.90;;;;;;4587554;19;20521;-34
2023/07/18 11:57:29;;;;;;;3.15;1.00;;;21.50;99.90;;;;;;4587651;19;20007;-42
2023/07/18 11:59:02;;;;;;;2.15;1.30;;;21.60;99.90;;;;;;4588456;19;20487;-35
2023/07/18 12:00:37;;;;;;;1.55;0.80;;;21.60;99.90;;;;;;4587444;19;20026;-33
2023/07/18 12:02:09;;;;;;;2.70;1.08;;;21.70;99.90;;;;;;4587308;19;20023;-42
2023/07/18 12:03:42;;;;;;;1.80;0.85;;;21.80;99.90;;;;;;4587912;19;20017;-30
2023/07/18 12:05:14;;;;;;;;;;;21.60;99.90;;;;;;4588384;19;20011;-31
2023/07/18 12:06:46;;;;;;;2.40;0.98;;;21.70;99.90;;;;;;4590024;19;19919;-30
2023/07/18 12:08:19;;;;;;;1.27;0.80;;;21.70;99.90;;;;;;4592703;19;20018;-33
2023/07/18 12:09:52;;;;;;;1.15;0.90;;;21.70;99.90;;;;;;4592453;19;20021;-31
2023/07/18 12:11:23;;;;;;;;;;;21.70;99.90;;;;;;4595542;19;20078;-31
2023/07/18 12:12:54;;;;;;;;;;;21.60;99.90;;;;;;4594971;19;19907;-38
2023/07/18 12:14:25;;;;;;;;;;;21.50;99.90;;;;;;4595242;19;19971;-40
2023/07/18 12:15:57;;;;;;;;;;;21.50;99.90;;;;;;4595749;19;19921;-30
2023/07/18 12:17:28;;;;;;;;;;;21.70;99.90;;;;;;4594513;19;19919;-39
2023/07/18 12:19:00;;;;;;;;;;;21.70;99.90;;;;;;4594546;19;19923;-32
2023/07/18 12:20:30;;;;;;;;;;;21.70;99.90;;;;;;4594269;19;19933;-40
2023/07/18 12:22:02;;;;;;;;;;;21.80;99.90;;;;;;4593753;19;20252;-33
2023/07/18 12:23:34;;;;;;;;;;;21.00;99.90;;;;;;4594574;19;20256;-37
2023/07/18 12:25:06;;;;;;;;;;;20.80;99.90;;;;;;4593965;19;19919;-33
2023/07/18 12:26:37;;;;;;;;;;;20.70;99.90;;;;;;4594122;19;19915;-30